sensor_id;sensor_type;location;lat;lon;timestamp;pressure;altitude;pressure_sealevel;temperature;humidity
15817;BME280;8009;50.070;8.232;2023-04-20T00:01:43;100160.81;;;9.16;42.35
15817;BME280;8009;50.070;8.232;2023-04-20T00:04:11;100161.22;;;8.83;43.45
15817;BME280;8009;50.070;8.232;2023-04-20T00:06:40;100156.34;;;8.05;46.01
15817;BME280;8009;50.070;8.232;2023-04-20T00:09:37;100149.09;;;8.49;45.12
15817;BME280;8009;50.070;8.232;2023-04-20T00:15:20;100141.41;;;8.57;45.00
15817;BME280;8009;50.070;8.232;2023-04-20T00:17:48;100142.03;;;8.75;44.82
15817;BME280;8009;50.070;8.232;2023-04-20T00:20:17;100128.06;;;8.56;44.55
15817;BME280;8009;50.070;8.232;2023-04-20T00:22:53;100121.53;;;8.72;44.51
15817;BME280;8009;50.070;8.232;2023-04-20T00:28:35;100107.84;;;8.90;41.35
15817;BME280;8009;50.070;8.232;2023-04-20T00:31:04;100102.44;;;8.90;42.85
15817;BME280;8009;50.070;8.232;2023-04-20T00:33:32;100091.03;;;8.86;41.29
15817;BME280;8009;50.070;8.232;2023-04-20T00:36:01;100094.88;;;8.82;42.21
15817;BME280;8009;50.070;8.232;2023-04-20T00:38:29;100083.81;;;8.99;41.51
15817;BME280;8009;50.070;8.232;2023-04-20T00:47:22;100095.38;;;9.01;41.42
15817;BME280;8009;50.070;8.232;2023-04-20T00:56:12;100087.16;;;8.90;43.54
15817;BME280;8009;50.070;8.232;2023-04-20T00:58:41;100080.75;;;9.18;41.51
15817;BME280;8009;50.070;8.232;2023-04-20T01:01:10;100084.19;;;8.81;43.19
15817;BME280;8009;50.070;8.232;2023-04-20T01:03:44;100078.25;;;9.15;43.24
15817;BME280;8009;50.070;8.232;2023-04-20T01:06:40;100076.09;;;8.68;44.56
15817;BME280;8009;50.070;8.232;2023-04-20T01:12:10;100068.31;;;8.90;45.05
15817;BME280;8009;50.070;8.232;2023-04-20T01:14:41;100061.19;;;8.89;44.58
15817;BME280;8009;50.070;8.232;2023-04-20T01:17:32;100071.25;;;8.73;44.47
15817;BME280;8009;50.070;8.232;2023-04-20T01:20:04;100059.50;;;9.01;45.06
15817;BME280;8009;50.070;8.232;2023-04-20T01:25:40;100057.31;;;8.53;46.56
15817;BME280;8009;50.070;8.232;2023-04-20T01:28:31;100048.69;;;8.48;44.21
15817;BME280;8009;50.070;8.232;2023-04-20T01:34:32;100052.63;;;7.58;47.11
15817;BME280;8009;50.070;8.232;2023-04-20T01:37:00;100046.13;;;7.48;46.90
15817;BME280;8009;50.070;8.232;2023-04-20T01:39:37;100042.75;;;7.59;45.97
15817;BME280;8009;50.070;8.232;2023-04-20T01:54:51;100033.53;;;8.19;44.68
15817;BME280;8009;50.070;8.232;2023-04-20T02:00:30;100031.47;;;8.37;44.55
15817;BME280;8009;50.070;8.232;2023-04-20T02:02:58;100034.88;;;8.40;45.27
15817;BME280;8009;50.070;8.232;2023-04-20T02:05:26;100029.44;;;8.13;45.39
15817;BME280;8009;50.070;8.232;2023-04-20T02:07:55;100029.13;;;8.18;45.26
15817;BME280;8009;50.070;8.232;2023-04-20T02:10:26;100020.19;;;7.47;47.02
15817;BME280;8009;50.070;8.232;2023-04-20T02:12:54;100030.91;;;6.74;49.28
15817;BME280;8009;50.070;8.232;2023-04-20T02:15:22;100023.00;;;7.46;47.43
15817;BME280;8009;50.070;8.232;2023-04-20T02:17:51;100025.50;;;6.90;49.52
15817;BME280;8009;50.070;8.232;2023-04-20T02:20:19;100022.03;;;7.47;48.23
15817;BME280;8009;50.070;8.232;2023-04-20T02:22:48;100011.63;;;7.84;47.25
15817;BME280;8009;50.070;8.232;2023-04-20T02:28:46;100010.09;;;7.79;47.90
15817;BME280;8009;50.070;8.232;2023-04-20T03:07:43;99995.19;;;8.02;46.84
15817;BME280;8009;50.070;8.232;2023-04-20T03:29:03;99981.72;;;7.61;49.84
15817;BME280;8009;50.070;8.232;2023-04-20T03:31:32;99976.41;;;7.74;50.06
15817;BME280;8009;50.070;8.232;2023-04-20T03:34:00;99976.84;;;7.95;49.86
15817;BME280;8009;50.070;8.232;2023-04-20T03:36:32;99977.22;;;8.03;49.96
15817;BME280;8009;50.070;8.232;2023-04-20T03:39:00;99980.91;;;7.73;50.56
15817;BME280;8009;50.070;8.232;2023-04-20T03:41:29;99981.81;;;8.01;49.92
15817;BME280;8009;50.070;8.232;2023-04-20T03:43:58;99975.06;;;7.81;50.81
15817;BME280;8009;50.070;8.232;2023-04-20T03:46:29;99973.53;;;7.77;51.28
15817;BME280;8009;50.070;8.232;2023-04-20T03:48:58;99972.28;;;7.82;51.99
15817;BME280;8009;50.070;8.232;2023-04-20T03:54:31;99970.84;;;7.77;52.27
15817;BME280;8009;50.070;8.232;2023-04-20T03:56:59;99965.75;;;7.72;53.21
15817;BME280;8009;50.070;8.232;2023-04-20T04:09:42;99971.63;;;7.50;56.70
15817;BME280;8009;50.070;8.232;2023-04-20T04:15:24;99965.94;;;7.84;57.05
15817;BME280;8009;50.070;8.232;2023-04-20T04:17:53;99966.56;;;7.60;58.97
15817;BME280;8009;50.070;8.232;2023-04-20T04:20:23;99970.78;;;7.50;59.43
15817;BME280;8009;50.070;8.232;2023-04-20T04:29:18;99964.06;;;7.71;59.19
15817;BME280;8009;50.070;8.232;2023-04-20T04:31:46;99966.06;;;7.68;59.32
15817;BME280;8009;50.070;8.232;2023-04-20T05:05:55;99960.03;;;7.36;61.28
15817;BME280;8009;50.070;8.232;2023-04-20T05:08:23;99955.88;;;7.58;60.49
15817;BME280;8009;50.070;8.232;2023-04-20T05:10:52;99955.16;;;7.28;61.89
15817;BME280;8009;50.070;8.232;2023-04-20T05:13:32;99956.31;;;7.52;60.95
15817;BME280;8009;50.070;8.232;2023-04-20T05:16:00;99958.56;;;7.73;61.66
15817;BME280;8009;50.070;8.232;2023-04-20T05:18:43;99965.75;;;7.72;61.23
15817;BME280;8009;50.070;8.232;2023-04-20T05:21:14;99960.16;;;7.48;61.70
15817;BME280;8009;50.070;8.232;2023-04-20T05:36:16;99959.47;;;7.30;61.42
15817;BME280;8009;50.070;8.232;2023-04-20T05:45:09;99960.03;;;7.36;62.66
15817;BME280;8009;50.070;8.232;2023-04-20T05:47:40;99967.81;;;7.40;62.60
15817;BME280;8009;50.070;8.232;2023-04-20T05:50:09;99960.03;;;7.50;62.22
15817;BME280;8009;50.070;8.232;2023-04-20T05:52:40;99956.50;;;7.49;62.71
15817;BME280;8009;50.070;8.232;2023-04-20T05:55:08;99969.69;;;7.67;62.30
15817;BME280;8009;50.070;8.232;2023-04-20T05:57:37;99966.38;;;7.49;63.01
15817;BME280;8009;50.070;8.232;2023-04-20T06:00:08;99972.97;;;7.57;63.96
15817;BME280;8009;50.070;8.232;2023-04-20T06:02:36;99965.97;;;7.55;63.03
15817;BME280;8009;50.070;8.232;2023-04-20T06:05:07;99967.44;;;7.32;63.19
15817;BME280;8009;50.070;8.232;2023-04-20T06:07:36;99967.97;;;7.66;62.83
15817;BME280;8009;50.070;8.232;2023-04-20T06:10:08;99978.44;;;7.70;62.95
15817;BME280;8009;50.070;8.232;2023-04-20T06:12:37;99976.19;;;7.91;62.88
15817;BME280;8009;50.070;8.232;2023-04-20T06:15:07;99972.38;;;7.67;64.08
15817;BME280;8009;50.070;8.232;2023-04-20T06:17:35;99976.28;;;7.90;62.73
15817;BME280;8009;50.070;8.232;2023-04-20T06:20:06;99973.75;;;7.60;66.03
15817;BME280;8009;50.070;8.232;2023-04-20T06:22:35;99981.22;;;7.54;65.26
15817;BME280;8009;50.070;8.232;2023-04-20T06:25:04;99980.78;;;7.48;64.08
15817;BME280;8009;50.070;8.232;2023-04-20T06:27:35;99975.78;;;7.97;64.43
15817;BME280;8009;50.070;8.232;2023-04-20T06:30:04;99976.88;;;7.80;64.56
15817;BME280;8009;50.070;8.232;2023-04-20T06:32:33;99983.53;;;7.61;64.78
15817;BME280;8009;50.070;8.232;2023-04-20T06:35:02;99976.16;;;7.64;65.49
15817;BME280;8009;50.070;8.232;2023-04-20T06:37:31;99977.63;;;7.41;65.93
15817;BME280;8009;50.070;8.232;2023-04-20T06:39:59;99979.69;;;7.50;65.84
15817;BME280;8009;50.070;8.232;2023-04-20T06:42:28;99979.81;;;7.63;64.83
15817;BME280;8009;50.070;8.232;2023-04-20T06:44:58;99978.75;;;7.37;65.55
15817;BME280;8009;50.070;8.232;2023-04-20T06:47:27;99979.88;;;7.47;65.21
15817;BME280;8009;50.070;8.232;2023-04-20T06:49:56;99975.25;;;7.78;64.84
15817;BME280;8009;50.070;8.232;2023-04-20T06:52:24;99974.50;;;7.62;65.07
15817;BME280;8009;50.070;8.232;2023-04-20T06:54:53;99980.56;;;7.51;65.47
15817;BME280;8009;50.070;8.232;2023-04-20T06:57:21;99978.28;;;7.45;65.90
15817;BME280;8009;50.070;8.232;2023-04-20T06:59:49;99972.81;;;7.46;65.27
15817;BME280;8009;50.070;8.232;2023-04-20T07:02:20;99973.16;;;7.40;65.94
15817;BME280;8009;50.070;8.232;2023-04-20T07:04:48;99976.53;;;7.44;65.86
15817;BME280;8009;50.070;8.232;2023-04-20T07:07:17;99972.19;;;7.70;65.46
15817;BME280;8009;50.070;8.232;2023-04-20T07:09:45;99974.44;;;7.49;65.46
15817;BME280;8009;50.070;8.232;2023-04-20T07:12:13;99977.41;;;7.30;66.09
15817;BME280;8009;50.070;8.232;2023-04-20T07:14:42;99977.19;;;7.47;65.64
15817;BME280;8009;50.070;8.232;2023-04-20T07:17:10;99971.63;;;7.36;66.79
15817;BME280;8009;50.070;8.232;2023-04-20T07:19:41;99975.84;;;7.40;66.64
15817;BME280;8009;50.070;8.232;2023-04-20T07:22:09;99981.06;;;7.15;67.90
15817;BME280;8009;50.070;8.232;2023-04-20T07:24:37;99973.97;;;7.14;67.33
15817;BME280;8009;50.070;8.232;2023-04-20T07:27:06;99971.56;;;7.38;66.62
15817;BME280;8009;50.070;8.232;2023-04-20T07:29:34;99970.22;;;7.16;67.51
15817;BME280;8009;50.070;8.232;2023-04-20T07:32:03;99970.88;;;7.20;69.16
15817;BME280;8009;50.070;8.232;2023-04-20T07:34:31;99970.50;;;7.26;67.89
15817;BME280;8009;50.070;8.232;2023-04-20T07:37:02;99962.56;;;7.10;69.32
15817;BME280;8009;50.070;8.232;2023-04-20T07:39:30;99960.22;;;7.04;68.69
15817;BME280;8009;50.070;8.232;2023-04-20T07:42:01;99962.00;;;6.75;71.36
15817;BME280;8009;50.070;8.232;2023-04-20T07:44:29;99957.84;;;7.14;67.72
15817;BME280;8009;50.070;8.232;2023-04-20T07:46:57;99961.69;;;7.38;67.33
15817;BME280;8009;50.070;8.232;2023-04-20T07:49:26;99968.28;;;7.32;66.94
15817;BME280;8009;50.070;8.232;2023-04-20T07:51:54;99971.44;;;7.25;67.73
15817;BME280;8009;50.070;8.232;2023-04-20T07:54:25;99971.84;;;7.19;67.26
15817;BME280;8009;50.070;8.232;2023-04-20T07:56:53;99975.28;;;7.49;67.00
15817;BME280;8009;50.070;8.232;2023-04-20T07:59:22;99974.50;;;7.47;66.52
15817;BME280;8009;50.070;8.232;2023-04-20T08:01:50;99978.25;;;7.16;67.10
15817;BME280;8009;50.070;8.232;2023-04-20T08:04:20;99973.78;;;7.45;66.79
15817;BME280;8009;50.070;8.232;2023-04-20T08:06:49;99976.94;;;7.38;66.22
15817;BME280;8009;50.070;8.232;2023-04-20T08:09:17;99979.03;;;7.61;66.88
15817;BME280;8009;50.070;8.232;2023-04-20T08:11:48;99975.28;;;7.64;65.71
15817;BME280;8009;50.070;8.232;2023-04-20T08:14:16;99969.13;;;7.76;66.47
15817;BME280;8009;50.070;8.232;2023-04-20T08:16:45;99971.38;;;7.41;65.93
15817;BME280;8009;50.070;8.232;2023-04-20T08:19:13;99963.69;;;7.63;65.23
15817;BME280;8009;50.070;8.232;2023-04-20T08:21:41;99969.19;;;7.74;65.26
15817;BME280;8009;50.070;8.232;2023-04-20T08:24:10;99955.34;;;8.22;64.75
15817;BME280;8009;50.070;8.232;2023-04-20T08:26:38;99960.94;;;7.77;66.62
15817;BME280;8009;50.070;8.232;2023-04-20T08:29:10;99963.94;;;8.14;65.65
15817;BME280;8009;50.070;8.232;2023-04-20T08:31:38;99959.81;;;8.09;65.24
15817;BME280;8009;50.070;8.232;2023-04-20T08:34:06;99964.50;;;7.78;64.88
15817;BME280;8009;50.070;8.232;2023-04-20T08:36:35;99951.69;;;8.23;63.41
15817;BME280;8009;50.070;8.232;2023-04-20T08:39:08;99962.50;;;8.09;63.66
15817;BME280;8009;50.070;8.232;2023-04-20T08:41:36;99954.25;;;8.39;63.21
15817;BME280;8009;50.070;8.232;2023-04-20T08:44:06;99946.38;;;8.36;63.31
15817;BME280;8009;50.070;8.232;2023-04-20T08:46:40;99966.13;;;8.35;63.23
15817;BME280;8009;50.070;8.232;2023-04-20T08:49:10;99956.22;;;8.22;62.15
15817;BME280;8009;50.070;8.232;2023-04-20T08:51:39;99946.81;;;8.42;62.77
15817;BME280;8009;50.070;8.232;2023-04-20T08:54:09;99952.59;;;8.36;62.81
15817;BME280;8009;50.070;8.232;2023-04-20T08:56:40;99960.22;;;8.57;62.34
15817;BME280;8009;50.070;8.232;2023-04-20T08:59:09;99950.22;;;8.59;62.06
15817;BME280;8009;50.070;8.232;2023-04-20T09:01:42;99949.16;;;8.74;61.78
15817;BME280;8009;50.070;8.232;2023-04-20T09:04:18;99944.56;;;9.01;60.41
15817;BME280;8009;50.070;8.232;2023-04-20T09:06:47;99941.41;;;9.08;59.27
15817;BME280;8009;50.070;8.232;2023-04-20T09:09:16;99940.31;;;8.72;61.31
15817;BME280;8009;50.070;8.232;2023-04-20T09:11:45;99934.44;;;9.05;62.46
15817;BME280;8009;50.070;8.232;2023-04-20T09:14:14;99930.84;;;9.17;64.68
15817;BME280;8009;50.070;8.232;2023-04-20T09:16:52;99923.97;;;9.13;60.87
15817;BME280;8009;50.070;8.232;2023-04-20T09:19:22;99923.91;;;9.51;59.44
15817;BME280;8009;50.070;8.232;2023-04-20T09:21:52;99934.41;;;8.92;60.38
15817;BME280;8009;50.070;8.232;2023-04-20T09:24:24;99928.22;;;9.41;59.43
15817;BME280;8009;50.070;8.232;2023-04-20T09:26:57;99918.47;;;9.15;58.95
15817;BME280;8009;50.070;8.232;2023-04-20T09:29:25;99927.75;;;9.73;57.47
15817;BME280;8009;50.070;8.232;2023-04-20T09:31:57;99927.03;;;9.45;58.25
15817;BME280;8009;50.070;8.232;2023-04-20T09:34:25;99926.56;;;9.64;57.84
15817;BME280;8009;50.070;8.232;2023-04-20T09:36:54;99915.19;;;9.85;57.76
15817;BME280;8009;50.070;8.232;2023-04-20T09:39:23;99924.38;;;10.06;57.50
15817;BME280;8009;50.070;8.232;2023-04-20T09:41:51;99923.22;;;9.61;57.36
15817;BME280;8009;50.070;8.232;2023-04-20T09:44:20;99913.53;;;9.95;56.26
15817;BME280;8009;50.070;8.232;2023-04-20T09:46:48;99916.97;;;9.73;56.84
15817;BME280;8009;50.070;8.232;2023-04-20T09:49:19;99914.31;;;9.47;57.17
15817;BME280;8009;50.070;8.232;2023-04-20T09:51:48;99917.44;;;9.54;58.02
15817;BME280;8009;50.070;8.232;2023-04-20T09:54:17;99910.59;;;9.12;57.96
15817;BME280;8009;50.070;8.232;2023-04-20T09:56:47;99903.00;;;9.42;57.62
15817;BME280;8009;50.070;8.232;2023-04-20T09:59:16;99902.94;;;9.68;57.17
15817;BME280;8009;50.070;8.232;2023-04-20T10:01:46;99894.81;;;10.05;55.84
15817;BME280;8009;50.070;8.232;2023-04-20T10:04:15;99891.28;;;10.28;57.03
15817;BME280;8009;50.070;8.232;2023-04-20T10:06:54;99881.22;;;10.65;54.99
15817;BME280;8009;50.070;8.232;2023-04-20T10:09:28;99883.56;;;10.11;56.33
15817;BME280;8009;50.070;8.232;2023-04-20T10:12:05;99877.94;;;10.14;55.88
15817;BME280;8009;50.070;8.232;2023-04-20T10:14:35;99880.47;;;10.04;56.58
15817;BME280;8009;50.070;8.232;2023-04-20T10:17:08;99869.13;;;10.47;54.30
15817;BME280;8009;50.070;8.232;2023-04-20T10:19:37;99852.84;;;10.24;54.79
15817;BME280;8009;50.070;8.232;2023-04-20T10:22:24;99846.47;;;10.25;55.47
15817;BME280;8009;50.070;8.232;2023-04-20T10:24:56;99842.25;;;10.34;54.51
15817;BME280;8009;50.070;8.232;2023-04-20T10:27:26;99843.28;;;10.67;53.58
15817;BME280;8009;50.070;8.232;2023-04-20T10:29:56;99837.25;;;10.63;53.55
15817;BME280;8009;50.070;8.232;2023-04-20T10:32:35;99841.06;;;10.94;52.62
15817;BME280;8009;50.070;8.232;2023-04-20T10:35:05;99837.03;;;11.00;52.78
15817;BME280;8009;50.070;8.232;2023-04-20T10:37:46;99818.75;;;11.69;52.55
15817;BME280;8009;50.070;8.232;2023-04-20T10:40:15;99824.88;;;12.15;51.02
15817;BME280;8009;50.070;8.232;2023-04-20T10:42:44;99818.00;;;12.11;50.13
15817;BME280;8009;50.070;8.232;2023-04-20T10:45:12;99818.38;;;12.90;48.90
15817;BME280;8009;50.070;8.232;2023-04-20T10:47:42;99811.97;;;13.01;47.50
15817;BME280;8009;50.070;8.232;2023-04-20T10:50:12;99808.66;;;12.87;46.23
15817;BME280;8009;50.070;8.232;2023-04-20T10:52:43;99801.34;;;13.09;49.51
15817;BME280;8009;50.070;8.232;2023-04-20T10:55:18;99800.31;;;13.50;46.05
15817;BME280;8009;50.070;8.232;2023-04-20T10:57:47;99793.00;;;13.01;48.12
15817;BME280;8009;50.070;8.232;2023-04-20T11:00:16;99786.28;;;13.26;47.67
15817;BME280;8009;50.070;8.232;2023-04-20T11:02:49;99794.34;;;12.76;47.06
15817;BME280;8009;50.070;8.232;2023-04-20T11:05:18;99784.50;;;12.44;47.00
15817;BME280;8009;50.070;8.232;2023-04-20T11:07:52;99781.22;;;12.08;47.60
15817;BME280;8009;50.070;8.232;2023-04-20T11:10:23;99773.84;;;12.10;46.19
15817;BME280;8009;50.070;8.232;2023-04-20T11:12:52;99764.09;;;13.01;44.68
15817;BME280;8009;50.070;8.232;2023-04-20T11:15:30;99757.09;;;12.68;45.47
15817;BME280;8009;50.070;8.232;2023-04-20T11:18:05;99756.13;;;13.19;43.92
15817;BME280;8009;50.070;8.232;2023-04-20T11:20:34;99739.84;;;13.09;43.81
15817;BME280;8009;50.070;8.232;2023-04-20T11:23:07;99748.91;;;13.39;43.38
15817;BME280;8009;50.070;8.232;2023-04-20T11:25:35;99748.94;;;13.49;43.25
15817;BME280;8009;50.070;8.232;2023-04-20T11:28:04;99751.66;;;12.99;42.72
15817;BME280;8009;50.070;8.232;2023-04-20T11:30:38;99743.88;;;12.75;42.71
15817;BME280;8009;50.070;8.232;2023-04-20T11:33:06;99742.22;;;12.62;43.30
15817;BME280;8009;50.070;8.232;2023-04-20T11:35:35;99748.28;;;12.45;43.18
15817;BME280;8009;50.070;8.232;2023-04-20T11:38:07;99749.72;;;12.49;43.85
15817;BME280;8009;50.070;8.232;2023-04-20T11:40:37;99749.28;;;12.23;44.47
15817;BME280;8009;50.070;8.232;2023-04-20T11:43:10;99730.75;;;12.18;43.93
15817;BME280;8009;50.070;8.232;2023-04-20T11:45:38;99721.56;;;12.31;43.42
15817;BME280;8009;50.070;8.232;2023-04-20T11:48:06;99733.53;;;12.99;42.55
15817;BME280;8009;50.070;8.232;2023-04-20T11:50:35;99741.44;;;12.41;44.27
15817;BME280;8009;50.070;8.232;2023-04-20T11:53:03;99745.94;;;11.78;44.50
15817;BME280;8009;50.070;8.232;2023-04-20T11:55:36;99744.47;;;11.74;43.71
15817;BME280;8009;50.070;8.232;2023-04-20T11:58:06;99735.59;;;11.51;45.56
15817;BME280;8009;50.070;8.232;2023-04-20T12:00:39;99750.34;;;12.11;44.62
15817;BME280;8009;50.070;8.232;2023-04-20T12:03:07;99745.16;;;12.50;43.44
15817;BME280;8009;50.070;8.232;2023-04-20T12:05:35;99730.09;;;12.87;43.86
15817;BME280;8009;50.070;8.232;2023-04-20T12:08:04;99724.88;;;13.15;44.33
15817;BME280;8009;50.070;8.232;2023-04-20T12:10:33;99726.63;;;12.76;43.99
15817;BME280;8009;50.070;8.232;2023-04-20T12:13:04;99720.94;;;12.88;44.04
15817;BME280;8009;50.070;8.232;2023-04-20T12:15:32;99708.94;;;13.31;43.45
15817;BME280;8009;50.070;8.232;2023-04-20T12:18:01;99711.16;;;13.07;42.87
15817;BME280;8009;50.070;8.232;2023-04-20T12:20:30;99736.13;;;12.70;43.57
15817;BME280;8009;50.070;8.232;2023-04-20T12:22:58;99716.00;;;12.32;44.36
15817;BME280;8009;50.070;8.232;2023-04-20T12:25:26;99712.84;;;12.58;44.04
15817;BME280;8009;50.070;8.232;2023-04-20T12:27:55;99710.41;;;12.55;44.14
15817;BME280;8009;50.070;8.232;2023-04-20T12:30:26;99695.13;;;12.75;43.79
15817;BME280;8009;50.070;8.232;2023-04-20T12:32:54;99697.81;;;12.75;43.60
15817;BME280;8009;50.070;8.232;2023-04-20T12:35:23;99704.22;;;12.74;44.19
15817;BME280;8009;50.070;8.232;2023-04-20T12:37:51;99702.34;;;12.74;44.09
15817;BME280;8009;50.070;8.232;2023-04-20T12:40:20;99689.84;;;12.83;44.01
15817;BME280;8009;50.070;8.232;2023-04-20T12:42:48;99696.44;;;13.00;44.06
15817;BME280;8009;50.070;8.232;2023-04-20T12:45:18;99688.41;;;13.38;43.82
15817;BME280;8009;50.070;8.232;2023-04-20T12:47:49;99699.53;;;12.85;45.76
15817;BME280;8009;50.070;8.232;2023-04-20T12:50:17;99701.34;;;12.65;45.54
15817;BME280;8009;50.070;8.232;2023-04-20T12:52:46;99701.75;;;12.61;44.46
15817;BME280;8009;50.070;8.232;2023-04-20T12:55:16;99698.88;;;13.03;44.16
15817;BME280;8009;50.070;8.232;2023-04-20T12:57:44;99698.03;;;13.02;44.43
15817;BME280;8009;50.070;8.232;2023-04-20T13:00:13;99690.28;;;12.88;44.83
15817;BME280;8009;50.070;8.232;2023-04-20T13:02:41;99694.84;;;12.87;43.50
15817;BME280;8009;50.070;8.232;2023-04-20T13:05:13;99699.44;;;12.97;43.67
15817;BME280;8009;50.070;8.232;2023-04-20T13:07:42;99693.00;;;12.78;43.96
15817;BME280;8009;50.070;8.232;2023-04-20T13:10:11;99699.88;;;12.61;43.46
15817;BME280;8009;50.070;8.232;2023-04-20T13:12:39;99706.91;;;12.33;44.82
15817;BME280;8009;50.070;8.232;2023-04-20T13:15:08;99700.03;;;12.29;45.00
15817;BME280;8009;50.070;8.232;2023-04-20T13:17:37;99705.22;;;12.42;44.97
15817;BME280;8009;50.070;8.232;2023-04-20T13:20:07;99692.50;;;12.63;45.12
15817;BME280;8009;50.070;8.232;2023-04-20T13:22:38;99693.09;;;12.77;44.49
15817;BME280;8009;50.070;8.232;2023-04-20T13:25:07;99687.34;;;13.10;43.98
15817;BME280;8009;50.070;8.232;2023-04-20T13:27:36;99692.00;;;13.49;43.50
15817;BME280;8009;50.070;8.232;2023-04-20T13:30:06;99704.09;;;12.75;41.83
15817;BME280;8009;50.070;8.232;2023-04-20T13:32:34;99684.56;;;12.81;39.28
15817;BME280;8009;50.070;8.232;2023-04-20T13:35:03;99689.53;;;12.76;41.25
15817;BME280;8009;50.070;8.232;2023-04-20T13:37:32;99684.59;;;12.91;41.64
15817;BME280;8009;50.070;8.232;2023-04-20T13:40:04;99690.44;;;12.86;41.13
15817;BME280;8009;50.070;8.232;2023-04-20T13:42:32;99684.06;;;13.07;38.45
15817;BME280;8009;50.070;8.232;2023-04-20T13:45:01;99683.44;;;12.84;38.40
15817;BME280;8009;50.070;8.232;2023-04-20T13:50:32;99687.03;;;12.54;40.46
15817;BME280;8009;50.070;8.232;2023-04-20T13:53:00;99692.28;;;12.46;42.19
15817;BME280;8009;50.070;8.232;2023-04-20T13:55:34;99705.13;;;12.02;43.21
15817;BME280;8009;50.070;8.232;2023-04-20T13:58:02;99708.16;;;12.29;43.05
15817;BME280;8009;50.070;8.232;2023-04-20T14:00:31;99705.44;;;12.29;44.36
15817;BME280;8009;50.070;8.232;2023-04-20T14:03:00;99710.47;;;12.13;44.92
15817;BME280;8009;50.070;8.232;2023-04-20T14:05:30;99715.75;;;11.93;45.94
15817;BME280;8009;50.070;8.232;2023-04-20T14:08:00;99714.94;;;11.82;47.17
15817;BME280;8009;50.070;8.232;2023-04-20T14:10:28;99724.00;;;11.60;47.79
15817;BME280;8009;50.070;8.232;2023-04-20T14:12:59;99735.78;;;11.38;48.61
15817;BME280;8009;50.070;8.232;2023-04-20T14:15:28;99733.38;;;11.12;50.43
15817;BME280;8009;50.070;8.232;2023-04-20T14:17:56;99736.81;;;11.14;51.45
15817;BME280;8009;50.070;8.232;2023-04-20T14:20:24;99743.84;;;10.94;53.56
15817;BME280;8009;50.070;8.232;2023-04-20T14:22:53;99742.03;;;10.61;53.53
15817;BME280;8009;50.070;8.232;2023-04-20T14:25:21;99742.38;;;10.57;55.08
15817;BME280;8009;50.070;8.232;2023-04-20T14:27:49;99737.22;;;10.42;55.44
15817;BME280;8009;50.070;8.232;2023-04-20T14:30:21;99732.09;;;10.73;54.44
15817;BME280;8009;50.070;8.232;2023-04-20T14:32:54;99732.41;;;11.02;54.49
15817;BME280;8009;50.070;8.232;2023-04-20T14:35:23;99734.88;;;10.71;54.79
15817;BME280;8009;50.070;8.232;2023-04-20T14:37:52;99734.88;;;10.94;54.40
15817;BME280;8009;50.070;8.232;2023-04-20T14:40:21;99730.03;;;11.20;54.92
15817;BME280;8009;50.070;8.232;2023-04-20T14:42:49;99725.56;;;11.41;53.83
15817;BME280;8009;50.070;8.232;2023-04-20T14:45:20;99725.59;;;11.62;53.58
15817;BME280;8009;50.070;8.232;2023-04-20T14:47:51;99731.31;;;11.37;51.82
15817;BME280;8009;50.070;8.232;2023-04-20T14:50:20;99727.91;;;11.35;51.90
15817;BME280;8009;50.070;8.232;2023-04-20T14:52:51;99736.56;;;11.61;51.18
15817;BME280;8009;50.070;8.232;2023-04-20T14:55:20;99738.25;;;11.30;54.44
15817;BME280;8009;50.070;8.232;2023-04-20T14:57:50;99745.88;;;11.13;53.40
15817;BME280;8009;50.070;8.232;2023-04-20T15:00:21;99738.38;;;11.17;51.87
15817;BME280;8009;50.070;8.232;2023-04-20T15:02:52;99750.38;;;10.92;52.18
15817;BME280;8009;50.070;8.232;2023-04-20T15:05:20;99742.81;;;11.18;52.50
15817;BME280;8009;50.070;8.232;2023-04-20T15:07:49;99751.31;;;11.02;51.55
15817;BME280;8009;50.070;8.232;2023-04-20T15:10:18;99738.41;;;11.06;51.62
15817;BME280;8009;50.070;8.232;2023-04-20T15:12:47;99732.28;;;11.15;52.96
15817;BME280;8009;50.070;8.232;2023-04-20T15:15:16;99727.59;;;11.06;52.78
15817;BME280;8009;50.070;8.232;2023-04-20T15:17:47;99720.25;;;10.96;54.19
15817;BME280;8009;50.070;8.232;2023-04-20T15:20:15;99733.41;;;10.90;53.55
15817;BME280;8009;50.070;8.232;2023-04-20T15:22:43;99720.84;;;11.11;53.52
15817;BME280;8009;50.070;8.232;2023-04-20T15:25:12;99708.94;;;11.46;52.97
15817;BME280;8009;50.070;8.232;2023-04-20T15:27:40;99711.13;;;11.20;54.28
15817;BME280;8009;50.070;8.232;2023-04-20T15:30:09;99704.09;;;11.29;53.87
15817;BME280;8009;50.070;8.232;2023-04-20T15:32:38;99698.88;;;11.05;54.57
15817;BME280;8009;50.070;8.232;2023-04-20T15:35:09;99702.91;;;11.54;52.40
15817;BME280;8009;50.070;8.232;2023-04-20T15:37:37;99694.84;;;11.42;51.75
15817;BME280;8009;50.070;8.232;2023-04-20T15:40:08;99693.41;;;11.59;51.26
15817;BME280;8009;50.070;8.232;2023-04-20T15:42:37;99712.06;;;11.62;51.33
15817;BME280;8009;50.070;8.232;2023-04-20T15:45:06;99711.19;;;11.41;51.16
15817;BME280;8009;50.070;8.232;2023-04-20T15:47:36;99705.81;;;11.62;51.73
15817;BME280;8009;50.070;8.232;2023-04-20T15:50:05;99710.63;;;11.58;50.88
15817;BME280;8009;50.070;8.232;2023-04-20T15:52:36;99707.50;;;11.42;52.65
15817;BME280;8009;50.070;8.232;2023-04-20T15:55:05;99709.72;;;11.69;51.82
15817;BME280;8009;50.070;8.232;2023-04-20T15:57:34;99714.41;;;11.35;53.25
15817;BME280;8009;50.070;8.232;2023-04-20T16:00:02;99711.75;;;11.44;52.16
15817;BME280;8009;50.070;8.232;2023-04-20T16:02:32;99717.50;;;11.30;53.14
15817;BME280;8009;50.070;8.232;2023-04-20T16:05:00;99722.19;;;11.17;54.42
15817;BME280;8009;50.070;8.232;2023-04-20T16:07:29;99734.13;;;11.14;54.37
15817;BME280;8009;50.070;8.232;2023-04-20T16:10:00;99734.50;;;10.87;54.82
15817;BME280;8009;50.070;8.232;2023-04-20T16:12:31;99734.47;;;11.10;54.62
15817;BME280;8009;50.070;8.232;2023-04-20T16:14:59;99743.22;;;10.91;55.04
15817;BME280;8009;50.070;8.232;2023-04-20T16:17:28;99732.56;;;10.78;54.84
15817;BME280;8009;50.070;8.232;2023-04-20T16:19:57;99738.94;;;10.88;54.88
15817;BME280;8009;50.070;8.232;2023-04-20T16:22:25;99732.41;;;10.91;54.86
15817;BME280;8009;50.070;8.232;2023-04-20T16:24:53;99728.25;;;10.64;55.11
15817;BME280;8009;50.070;8.232;2023-04-20T16:27:24;99727.91;;;10.80;54.79
15817;BME280;8009;50.070;8.232;2023-04-20T16:29:53;99731.22;;;10.84;54.88